Time;durP1;ratioP1;P1;durP2;ratioP2;P2;SDS_P1;SDS_P2;PMS_P1;PMS_P2;Temp;Humidity;BMP_temperature;BMP_pressure;BME280_temperature;BME280_humidity;BME280_pressure;Samples;Min_cycle;Max_cycle;Signal;HPM_P1;HPM_P2
2022/12/10 00:02:05;;;;;;;72.55;33.22;;;0.70;99.90;;;;;;5035149;28;20065;-81
2022/12/10 00:04:31;;;;;;;71.10;33.28;;;0.70;99.90;;;;;;5035024;28;20071;-81
2022/12/10 00:07:00;;;;;;;74.97;33.60;;;0.70;99.90;;;;;;5037194;28;20470;-82
2022/12/10 00:09:25;;;;;;;77.38;36.35;;;0.70;99.90;;;;;;5039295;28;20027;-81
2022/12/10 00:11:54;;;;;;;82.03;35.55;;;0.70;99.90;;;;;;5033506;28;20029;-82
2022/12/10 00:14:19;;;;;;;69.57;30.92;;;0.60;99.90;;;;;;5036113;28;20025;-81
2022/12/10 00:16:45;;;;;;;75.55;34.00;;;0.60;99.90;;;;;;5036111;28;20025;-82
2022/12/10 00:19:11;;;;;;;68.35;31.80;;;0.60;99.90;;;;;;5032696;28;20397;-82
2022/12/10 00:21:37;;;;;;;66.65;31.35;;;0.60;99.90;;;;;;5037756;28;20099;-82
2022/12/10 00:24:04;;;;;;;66.03;30.83;;;0.60;99.90;;;;;;5038044;28;20036;-82
2022/12/10 00:26:33;;;;;;;64.97;32.17;;;0.60;99.90;;;;;;5035039;28;20519;-82
2022/12/10 00:29:01;;;;;;;61.30;30.23;;;0.60;99.90;;;;;;5037449;28;20036;-82
2022/12/10 00:31:30;;;;;;;78.50;33.72;;;0.60;99.90;;;;;;5035072;28;20508;-82
2022/12/10 00:34:01;;;;;;;62.20;30.65;;;0.60;99.90;;;;;;5037319;28;20070;-81
2022/12/10 00:36:29;;;;;;;64.55;30.90;;;0.60;99.90;;;;;;5036204;28;20029;-82
2022/12/10 00:38:55;;;;;;;73.07;31.88;;;0.60;99.90;;;;;;5036732;28;20029;-82
2022/12/10 00:41:24;;;;;;;68.85;32.13;;;0.60;99.90;;;;;;5037512;28;20340;-81
2022/12/10 00:43:50;;;;;;;76.00;34.45;;;0.60;99.90;;;;;;5032048;28;20104;-81
2022/12/10 00:46:17;;;;;;;60.63;31.33;;;0.60;99.90;;;;;;5035828;28;20112;-82
2022/12/10 00:48:43;;;;;;;59.22;29.58;;;0.60;99.90;;;;;;5032220;28;20029;-82
2022/12/10 00:51:15;;;;;;;61.72;29.70;;;0.50;99.90;;;;;;5034851;28;20030;-82
2022/12/10 00:53:42;;;;;;;59.65;28.95;;;0.60;99.90;;;;;;5033399;28;20529;-81
2022/12/10 00:56:10;;;;;;;69.32;29.90;;;0.60;99.90;;;;;;5034857;28;20068;-82
2022/12/10 00:58:37;;;;;;;70.30;31.90;;;0.50;99.90;;;;;;5035368;28;20040;-81
2022/12/10 01:01:19;;;;;;;62.40;29.55;;;0.60;99.90;;;;;;5033856;28;20033;-82
2022/12/10 01:03:47;;;;;;;65.03;29.85;;;0.50;99.90;;;;;;5035300;28;20029;-82
2022/12/10 01:06:22;;;;;;;61.78;29.40;;;0.60;99.90;;;;;;5037017;28;20638;-82
2022/12/10 01:08:49;;;;;;;65.20;30.30;;;0.50;99.90;;;;;;5033289;28;20033;-82
2022/12/10 01:11:18;;;;;;;67.10;29.10;;;0.50;99.90;;;;;;5035364;28;20041;-82
2022/12/10 01:13:45;;;;;;;71.13;32.00;;;0.50;99.90;;;;;;5034971;28;20032;-82
2022/12/10 01:16:12;;;;;;;67.65;29.70;;;0.50;99.90;;;;;;5034997;28;20009;-81
2022/12/10 01:18:40;;;;;;;75.05;33.67;;;0.50;99.90;;;;;;5033705;28;20105;-82
2022/12/10 01:21:09;;;;;;;67.53;30.30;;;0.50;99.90;;;;;;5036473;28;20022;-82
2022/12/10 01:23:38;;;;;;;69.90;30.90;;;0.50;99.90;;;;;;5036816;28;20168;-82
2022/12/10 01:26:06;;;;;;;68.05;29.95;;;0.50;99.90;;;;;;5043040;28;20029;-82
2022/12/10 01:28:34;;;;;;;80.95;32.90;;;0.50;99.90;;;;;;5037351;28;20057;-82
2022/12/10 01:31:05;;;;;;;78.97;33.88;;;0.50;99.90;;;;;;5037820;28;20045;-82
2022/12/10 01:33:30;;;;;;;66.45;31.65;;;0.50;99.90;;;;;;5041375;28;20067;-82
2022/12/10 01:36:01;;;;;;;67.25;30.67;;;0.40;99.90;;;;;;5041561;28;20029;-81
2022/12/10 01:38:26;;;;;;;78.13;34.42;;;0.40;99.90;;;;;;5040768;28;20522;-81
2022/12/10 01:40:52;;;;;;;74.05;32.88;;;0.40;99.90;;;;;;5039166;28;20101;-82
2022/12/10 01:43:18;;;;;;;72.70;31.75;;;0.40;99.90;;;;;;5035367;28;20112;-81
2022/12/10 01:45:43;;;;;;;78.53;36.00;;;0.40;99.90;;;;;;5037927;28;20119;-81
2022/12/10 01:48:10;;;;;;;90.30;36.20;;;0.40;99.90;;;;;;5037993;28;20064;-81
2022/12/10 01:50:36;;;;;;;85.18;35.38;;;0.40;99.90;;;;;;5040526;28;20417;-81
2022/12/10 01:53:03;;;;;;;78.75;33.25;;;0.40;99.90;;;;;;5038701;28;20041;-81
2022/12/10 01:55:48;;;;;;;72.75;30.70;;;0.40;99.90;;;;;;5039856;28;20385;-82
2022/12/10 01:58:16;;;;;;;76.70;33.83;;;0.40;99.90;;;;;;5038951;28;20033;-82
2022/12/10 02:00:56;;;;;;;79.20;32.63;;;0.40;99.90;;;;;;5039857;28;20064;-82
2022/12/10 02:03:52;;;;;;;67.47;30.63;;;0.40;99.90;;;;;;5037526;28;20234;-82
2022/12/10 02:06:43;;;;;;;66.43;30.10;;;0.40;99.90;;;;;;5028812;28;20096;-81
2022/12/10 02:09:22;;;;;;;61.50;27.40;;;0.40;99.90;;;;;;5037013;28;20033;-81
2022/12/10 02:11:51;;;;;;;67.32;29.90;;;0.40;99.90;;;;;;5039439;28;20045;-81
2022/12/10 02:14:29;;;;;;;75.00;32.00;;;0.40;99.90;;;;;;5037478;28;20466;-82
2022/12/10 02:16:59;;;;;;;71.80;31.40;;;0.40;99.90;;;;;;5038247;28;20394;-81
2022/12/10 02:19:52;;;;;;;72.07;32.45;;;0.40;99.90;;;;;;5040370;28;20493;-82
2022/12/10 02:22:20;;;;;;;67.45;31.90;;;0.40;99.90;;;;;;5034880;28;20060;-82
2022/12/10 02:24:48;;;;;;;71.30;32.63;;;0.40;99.90;;;;;;5035559;28;20028;-82
2022/12/10 02:27:55;;;;;;;66.00;30.42;;;0.40;99.90;;;;;;5038582;28;20326;-81
2022/12/10 02:30:20;;;;;;;71.88;32.42;;;0.40;99.90;;;;;;4997267;28;20620;-82
2022/12/10 02:32:49;;;;;;;75.72;32.25;;;0.40;99.90;;;;;;5026081;28;20063;-82
2022/12/10 02:35:27;;;;;;;64.93;28.42;;;0.40;99.90;;;;;;5038142;28;20036;-81
2022/12/10 02:37:59;;;;;;;74.70;32.83;;;0.40;99.90;;;;;;5038700;28;20033;-82
2022/12/10 02:40:32;;;;;;;73.13;33.60;;;0.40;99.90;;;;;;5034798;28;20309;-81
2022/12/10 02:42:58;;;;;;;71.72;30.55;;;0.30;99.90;;;;;;5036645;28;20459;-82
2022/12/10 02:45:26;;;;;;;80.93;34.67;;;0.40;99.90;;;;;;5039769;28;20086;-82
2022/12/10 02:47:56;;;;;;;75.85;33.60;;;0.30;99.90;;;;;;5036630;28;20526;-82
2022/12/10 02:50:23;;;;;;;75.43;32.08;;;0.30;99.90;;;;;;5036921;28;20021;-82
2022/12/10 02:52:48;;;;;;;78.07;33.28;;;0.30;99.90;;;;;;5040596;28;20044;-82
2022/12/10 02:55:15;;;;;;;66.88;30.90;;;0.30;99.90;;;;;;5038424;28;20032;-81
2022/12/10 02:58:05;;;;;;;77.53;34.03;;;0.30;99.90;;;;;;5037188;28;20067;-82
2022/12/10 03:00:36;;;;;;;65.63;30.38;;;0.30;99.90;;;;;;5036627;28;20086;-82
2022/12/10 03:03:13;;;;;;;58.03;28.60;;;0.30;99.90;;;;;;5037233;28;20037;-82
2022/12/10 03:05:49;;;;;;;69.63;31.50;;;0.30;99.90;;;;;;5035376;28;20025;-82
2022/12/10 03:08:23;;;;;;;67.60;31.65;;;0.30;99.90;;;;;;5033500;28;20535;-81
2022/12/10 03:11:17;;;;;;;71.20;32.88;;;0.40;99.90;;;;;;5035795;28;20477;-82
2022/12/10 03:13:53;;;;;;;66.05;30.02;;;0.40;99.90;;;;;;5037178;28;20462;-82
2022/12/10 03:16:21;;;;;;;69.85;31.52;;;0.30;99.90;;;;;;5037609;28;20064;-82
2022/12/10 03:18:53;;;;;;;63.28;29.05;;;0.40;99.90;;;;;;5032085;28;20053;-82
2022/12/10 03:21:20;;;;;;;60.67;28.17;;;0.30;99.90;;;;;;5038535;28;20082;-82
2022/12/10 03:23:47;;;;;;;67.72;28.75;;;0.40;99.90;;;;;;5037335;28;20056;-82
2022/12/10 03:26:14;;;;;;;60.42;27.42;;;0.40;99.90;;;;;;5035419;28;20018;-83
2022/12/10 03:28:49;;;;;;;67.90;30.95;;;0.40;99.90;;;;;;5031428;28;20025;-81
2022/12/10 03:31:17;;;;;;;71.05;29.58;;;0.40;99.90;;;;;;5038160;28;20041;-82
2022/12/10 03:33:47;;;;;;;62.72;28.42;;;0.40;99.90;;;;;;5040159;28;20025;-82
2022/12/10 03:36:15;;;;;;;60.28;27.77;;;0.40;99.90;;;;;;5033522;28;20087;-82
2022/12/10 03:38:41;;;;;;;64.60;29.58;;;0.40;99.90;;;;;;5038903;28;20021;-82
2022/12/10 03:41:07;;;;;;;60.67;29.15;;;0.40;99.90;;;;;;5038326;28;20378;-82
2022/12/10 03:43:35;;;;;;;68.80;30.00;;;0.40;99.90;;;;;;5034803;28;20025;-81
2022/12/10 03:46:01;;;;;;;67.22;28.35;;;0.40;99.90;;;;;;5032889;28;20035;-81
2022/12/10 03:48:27;;;;;;;66.13;29.15;;;0.40;99.90;;;;;;5037786;28;20025;-82
2022/12/10 03:50:53;;;;;;;64.97;28.67;;;0.40;99.90;;;;;;5035897;28;20519;-82
2022/12/10 03:53:18;;;;;;;70.07;28.95;;;0.40;99.90;;;;;;5036629;28;20033;-82
2022/12/10 03:55:44;;;;;;;60.33;28.15;;;0.40;99.90;;;;;;5040002;28;20256;-82
2022/12/10 03:58:09;;;;;;;69.40;30.50;;;0.40;99.90;;;;;;5034155;28;20032;-81
2022/12/10 04:00:35;;;;;;;67.15;27.40;;;0.40;99.90;;;;;;5036706;28;20109;-81
2022/12/10 04:03:01;;;;;;;66.53;28.90;;;0.30;99.90;;;;;;5034717;28;20369;-81
2022/12/10 04:05:26;;;;;;;70.03;30.27;;;0.40;99.90;;;;;;5036639;28;20108;-81
2022/12/10 04:07:52;;;;;;;72.38;30.48;;;0.40;99.90;;;;;;5037785;28;20021;-81
2022/12/10 04:10:18;;;;;;;71.57;29.48;;;0.40;99.90;;;;;;5033694;28;20477;-81
2022/12/10 04:16:26;;;;;;;69.07;30.20;;;0.30;99.90;;;;;;5034126;28;20482;-82
2022/12/10 04:18:16;;;;;;;68.60;28.48;;;0.30;99.90;;;;;;5032122;28;20056;-82
2022/12/10 04:28:58;;;;;;;70.03;29.38;;;0.30;99.90;;;;;;5034767;28;20028;-82
2022/12/10 04:31:24;;;;;;;66.13;28.83;;;0.30;99.90;;;;;;5032588;28;20045;-81
2022/12/10 04:33:49;;;;;;;67.97;27.92;;;0.30;99.90;;;;;;5035851;28;20048;-81
2022/12/10 04:36:15;;;;;;;71.47;30.17;;;0.40;99.90;;;;;;5035320;28;20021;-81
2022/12/10 04:38:41;;;;;;;73.68;32.28;;;0.30;99.90;;;;;;5037648;28;20029;-82
2022/12/10 04:41:15;;;;;;;72.68;31.48;;;0.30;99.90;;;;;;5037589;28;20056;-82
2022/12/10 04:43:44;;;;;;;76.10;31.40;;;0.30;99.90;;;;;;5037136;28;20021;-80
2022/12/10 04:46:10;;;;;;;70.40;28.35;;;0.20;99.90;;;;;;5037355;28;20459;-81
2022/12/10 04:48:36;;;;;;;63.78;28.02;;;0.30;99.90;;;;;;5035523;28;20028;-82
2022/12/10 04:51:02;;;;;;;66.55;29.00;;;0.20;99.90;;;;;;5036689;28;20021;-82
2022/12/10 04:53:28;;;;;;;65.25;28.15;;;0.20;99.90;;;;;;5033190;28;20060;-82
2022/12/10 04:55:53;;;;;;;68.30;29.10;;;0.20;99.90;;;;;;5037142;28;20440;-81
2022/12/10 04:58:19;;;;;;;63.15;27.20;;;0.20;99.90;;;;;;5041244;28;20029;-81
2022/12/10 05:00:44;;;;;;;66.40;29.02;;;0.20;99.90;;;;;;5039368;28;20076;-81
2022/12/10 05:03:10;;;;;;;70.35;29.45;;;0.20;99.90;;;;;;5044065;28;20033;-81
2022/12/10 05:05:36;;;;;;;65.32;29.48;;;0.20;99.90;;;;;;5046451;28;20047;-82
2022/12/10 05:08:02;;;;;;;63.92;27.60;;;0.20;99.90;;;;;;5039136;28;20041;-82
2022/12/10 05:10:28;;;;;;;68.22;27.70;;;0.20;99.90;;;;;;5047202;28;20474;-81
2022/12/10 05:12:56;;;;;;;70.95;29.08;;;0.20;99.90;;;;;;5043516;28;20082;-81
2022/12/10 05:15:21;;;;;;;72.57;30.02;;;0.20;99.90;;;;;;5039937;28;20424;-81
2022/12/10 05:17:47;;;;;;;78.45;31.50;;;0.20;99.90;;;;;;5040992;28;20029;-82
2022/12/10 05:20:13;;;;;;;77.78;31.35;;;0.20;99.90;;;;;;5041935;28;20044;-81
2022/12/10 05:25:25;;;;;;;72.18;30.00;;;0.10;99.90;;;;;;5042708;28;20087;-82
2022/12/10 05:27:51;;;;;;;79.28;30.75;;;0.20;99.90;;;;;;5037963;28;20313;-81
2022/12/10 05:30:17;;;;;;;79.75;31.50;;;0.20;99.90;;;;;;5044595;28;20055;-81
2022/12/10 05:32:43;;;;;;;79.97;31.83;;;0.20;99.90;;;;;;5037100;28;20041;-81
2022/12/10 05:35:11;;;;;;;85.00;32.05;;;0.20;99.90;;;;;;5040567;28;20489;-81
2022/12/10 05:37:37;;;;;;;78.93;32.83;;;0.20;99.90;;;;;;5038400;28;20024;-81
2022/12/10 05:40:03;;;;;;;78.28;33.38;;;0.20;99.90;;;;;;5042402;28;20075;-82
2022/12/10 05:42:29;;;;;;;102.68;38.17;;;0.20;99.90;;;;;;5043367;28;20032;-81
2022/12/10 05:44:58;;;;;;;88.15;36.40;;;0.10;99.90;;;;;;5041502;28;20025;-81
2022/12/10 05:47:24;;;;;;;98.20;36.65;;;0.10;99.90;;;;;;5038472;28;20488;-81
2022/12/10 05:49:49;;;;;;;98.53;37.67;;;0.10;99.90;;;;;;5039215;28;20116;-81
2022/12/10 05:52:15;;;;;;;101.90;38.35;;;0.10;99.90;;;;;;5039625;28;20179;-81
2022/12/10 05:54:41;;;;;;;99.28;38.80;;;0.10;99.90;;;;;;5043589;28;20078;-82
2022/12/10 05:57:06;;;;;;;91.22;36.80;;;0.10;99.90;;;;;;5038503;28;20032;-81
2022/12/10 05:59:32;;;;;;;103.05;39.00;;;0.10;99.90;;;;;;5037959;28;20041;-81
2022/12/10 06:01:57;;;;;;;96.95;37.65;;;0.10;99.90;;;;;;5042203;28;20021;-82
2022/12/10 06:04:26;;;;;;;93.85;37.53;;;0.10;99.90;;;;;;5039256;28;20115;-81
2022/12/10 06:06:52;;;;;;;96.30;37.35;;;0.10;99.90;;;;;;5041416;28;20025;-81
2022/12/10 06:09:17;;;;;;;95.03;37.58;;;0.10;99.90;;;;;;5039826;28;20032;-81
2022/12/10 06:11:43;;;;;;;91.65;35.97;;;0.10;99.90;;;;;;5042865;28;20032;-81
2022/12/10 06:14:14;;;;;;;100.80;40.20;;;0.10;99.90;;;;;;5040262;28;20105;-81
2022/12/10 06:16:43;;;;;;;96.95;37.58;;;0.20;99.90;;;;;;5041907;28;20232;-81
2022/12/10 06:19:09;;;;;;;89.40;37.70;;;0.10;99.90;;;;;;5044603;28;20050;-81
2022/12/10 06:21:34;;;;;;;99.88;40.97;;;0.10;99.90;;;;;;5040600;28;20032;-81
2022/12/10 06:24:06;;;;;;;100.20;36.88;;;0.10;99.90;;;;;;5043892;28;20039;-80
2022/12/10 06:26:32;;;;;;;98.47;39.47;;;0.10;99.90;;;;;;5035579;28;20037;-81
2022/12/10 06:29:00;;;;;;;100.85;40.25;;;0.10;99.90;;;;;;5035567;28;20028;-81
2022/12/10 06:31:26;;;;;;;101.65;40.22;;;0.10;99.90;;;;;;5033013;28;20035;-81
2022/12/10 06:33:57;;;;;;;109.15;42.40;;;0.10;99.90;;;;;;5042945;28;20021;-81
2022/12/10 06:36:23;;;;;;;101.70;40.35;;;0.10;99.90;;;;;;5037743;28;20478;-81
2022/12/10 06:38:49;;;;;;;101.95;42.50;;;0.10;99.90;;;;;;5035367;28;20017;-81
2022/12/10 06:41:16;;;;;;;106.53;42.95;;;0.10;99.90;;;;;;5036518;28;20462;-82
2022/12/10 06:43:45;;;;;;;108.75;43.92;;;0.10;99.90;;;;;;5032521;28;20120;-81
2022/12/10 06:46:13;;;;;;;105.72;44.65;;;0.10;99.90;;;;;;5037553;28;20031;-81
2022/12/10 06:48:39;;;;;;;105.75;44.15;;;0.10;99.90;;;;;;5037140;28;20473;-82
2022/12/10 06:51:06;;;;;;;98.60;43.22;;;0.10;99.90;;;;;;5039269;28;20452;-82
2022/12/10 06:53:32;;;;;;;97.65;42.85;;;0.10;99.90;;;;;;5035634;28;20040;-82
2022/12/10 06:56:03;;;;;;;92.53;39.47;;;0.10;99.90;;;;;;5044295;28;20116;-82
2022/12/10 06:58:31;;;;;;;102.25;44.95;;;0.10;99.90;;;;;;5036132;28;20473;-84
2022/12/10 07:01:20;;;;;;;97.03;41.42;;;0.10;99.90;;;;;;5039265;28;20046;-81
2022/12/10 07:03:54;;;;;;;93.82;42.80;;;0.10;99.90;;;;;;5039174;28;20027;-82
2022/12/10 07:06:20;;;;;;;98.82;43.72;;;0.10;99.90;;;;;;5038267;28;20408;-82
2022/12/10 07:08:46;;;;;;;87.78;40.40;;;0.00;99.90;;;;;;5035740;28;20054;-82
2022/12/10 07:11:14;;;;;;;98.95;42.72;;;0.10;99.90;;;;;;5038837;28;20470;-82
2022/12/10 07:13:40;;;;;;;96.70;39.45;;;0.10;99.90;;;;;;5042825;28;20071;-82
2022/12/10 07:16:15;;;;;;;101.28;43.92;;;0.10;99.90;;;;;;5039686;28;20083;-81
2022/12/10 07:18:44;;;;;;;95.22;41.08;;;0.10;99.90;;;;;;5040084;28;20025;-82
2022/12/10 07:21:18;;;;;;;91.03;40.20;;;0.10;99.90;;;;;;5035504;28;20049;-81
2022/12/10 07:23:44;;;;;;;87.93;41.60;;;0.10;99.90;;;;;;5037509;28;20033;-81
2022/12/10 07:26:10;;;;;;;86.70;39.20;;;0.10;99.90;;;;;;5039024;28;20032;-83
2022/12/10 07:28:36;;;;;;;89.00;39.17;;;0.10;99.90;;;;;;5037978;28;20075;-81
2022/12/10 07:31:07;;;;;;;84.85;39.83;;;0.10;99.90;;;;;;5035262;28;20033;-81
2022/12/10 07:33:34;;;;;;;95.95;40.20;;;0.10;99.90;;;;;;5042693;28;20049;-81
2022/12/10 07:36:04;;;;;;;95.05;40.70;;;0.10;99.90;;;;;;5037953;28;20127;-81
2022/12/10 07:38:29;;;;;;;100.40;43.55;;;0.10;99.90;;;;;;5042518;28;20040;-81
2022/12/10 07:40:55;;;;;;;103.15;43.20;;;0.10;99.90;;;;;;5042487;28;20025;-81
2022/12/10 07:43:20;;;;;;;94.15;41.63;;;0.10;99.90;;;;;;5046807;28;20013;-81
2022/12/10 07:45:46;;;;;;;96.25;42.58;;;0.10;99.90;;;;;;5038597;28;20485;-81
2022/12/10 07:48:12;;;;;;;99.40;43.63;;;0.10;99.90;;;;;;5035742;28;20079;-81
2022/12/10 07:50:37;;;;;;;104.45;44.10;;;0.00;99.90;;;;;;5039743;28;20024;-81
2022/12/10 07:53:03;;;;;;;110.40;46.63;;;0.00;99.90;;;;;;5041143;28;20040;-81
2022/12/10 07:55:28;;;;;;;98.90;44.35;;;0.10;99.90;;;;;;5041824;28;20049;-81
2022/12/10 07:57:54;;;;;;;99.88;45.15;;;0.00;99.90;;;;;;5035639;28;20022;-81
2022/12/10 08:00:20;;;;;;;116.68;48.53;;;0.00;99.90;;;;;;5039797;28;20040;-81
2022/12/10 08:02:45;;;;;;;127.22;52.88;;;0.00;99.90;;;;;;5039897;28;20081;-81
2022/12/10 08:05:11;;;;;;;110.20;47.60;;;0.10;99.90;;;;;;5037944;28;20029;-81
2022/12/10 08:07:37;;;;;;;111.25;48.53;;;0.00;99.90;;;;;;5041965;28;20032;-81
2022/12/10 08:10:03;;;;;;;112.72;46.30;;;0.00;99.90;;;;;;5041049;28;20028;-82
2022/12/10 08:12:29;;;;;;;117.68;49.35;;;0.00;99.90;;;;;;5035307;28;20048;-81
2022/12/10 08:14:55;;;;;;;112.50;47.78;;;0.00;99.90;;;;;;5039528;28;20405;-81
2022/12/10 08:17:20;;;;;;;105.40;47.50;;;0.00;99.90;;;;;;5036962;28;20182;-81
2022/12/10 08:19:46;;;;;;;109.10;45.40;;;0.00;99.90;;;;;;5034620;28;20366;-81
2022/12/10 08:22:11;;;;;;;105.05;46.45;;;0.00;99.90;;;;;;5039417;28;20075;-81
2022/12/10 08:24:37;;;;;;;111.50;44.40;;;0.00;99.90;;;;;;5040772;28;20025;-81
2022/12/10 08:27:03;;;;;;;113.25;46.00;;;0.00;99.90;;;;;;5044363;28;20021;-81
2022/12/10 08:29:28;;;;;;;117.85;51.45;;;0.00;99.90;;;;;;5039524;28;20078;-81
2022/12/10 08:31:54;;;;;;;124.15;50.65;;;0.10;99.90;;;;;;5040644;28;20106;-81
2022/12/10 08:34:21;;;;;;;117.28;49.30;;;0.10;99.90;;;;;;5045529;28;20025;-80
2022/12/10 08:36:47;;;;;;;120.70;49.58;;;0.00;99.90;;;;;;5034676;28;20108;-81
2022/12/10 08:39:16;;;;;;;112.80;46.75;;;0.10;99.90;;;;;;5042280;28;20132;-81
2022/12/10 08:41:43;;;;;;;117.22;46.53;;;0.10;99.90;;;;;;5037302;28;20021;-82
2022/12/10 08:44:12;;;;;;;106.35;43.95;;;0.10;99.90;;;;;;5036870;28;20722;-81
2022/12/10 08:46:37;;;;;;;112.57;45.17;;;0.10;99.90;;;;;;5034742;28;20033;-81
2022/12/10 08:49:04;;;;;;;101.47;44.25;;;0.10;99.90;;;;;;5035628;28;20030;-81
2022/12/10 08:51:29;;;;;;;101.13;41.92;;;0.10;99.90;;;;;;5038357;28;20052;-81
2022/12/10 08:53:55;;;;;;;103.38;41.50;;;0.10;99.90;;;;;;5039849;28;20373;-81
2022/12/10 08:56:21;;;;;;;102.13;43.08;;;0.10;99.90;;;;;;5038466;28;20037;-80
2022/12/10 08:58:46;;;;;;;105.10;43.08;;;0.10;99.90;;;;;;5037033;28;20029;-81
2022/12/10 09:01:16;;;;;;;96.38;43.05;;;0.10;99.90;;;;;;5038565;28;20020;-81
2022/12/10 09:03:42;;;;;;;87.32;39.45;;;0.10;99.90;;;;;;5044013;28;20029;-81
2022/12/10 09:06:11;;;;;;;90.88;41.08;;;0.00;99.90;;;;;;5035294;28;20021;-81
2022/12/10 09:08:37;;;;;;;93.53;40.10;;;0.10;99.90;;;;;;5037181;28;20024;-80
2022/12/10 09:11:08;;;;;;;95.35;40.17;;;0.10;99.90;;;;;;5037787;28;20037;-81
2022/12/10 09:13:34;;;;;;;100.00;43.13;;;0.10;99.90;;;;;;5035702;28;20041;-81
2022/12/10 09:16:00;;;;;;;89.70;39.97;;;0.10;99.90;;;;;;5037038;28;20025;-81
2022/12/10 09:18:28;;;;;;;91.43;42.75;;;0.00;99.90;;;;;;5038064;28;20037;-80
2022/12/10 09:20:54;;;;;;;88.60;38.22;;;0.00;99.90;;;;;;5033794;28;20033;-81
2022/12/10 09:23:19;;;;;;;97.25;40.78;;;0.00;99.90;;;;;;5034961;28;20029;-81
2022/12/10 09:25:45;;;;;;;83.30;38.40;;;0.10;99.90;;;;;;5037282;28;20040;-81
2022/12/10 09:28:11;;;;;;;83.70;36.72;;;0.00;99.90;;;;;;5034175;28;20540;-82
2022/12/10 09:30:36;;;;;;;78.90;36.08;;;-0.10;99.90;;;;;;5035959;28;20029;-81
2022/12/10 09:33:02;;;;;;;83.68;38.10;;;-0.10;99.90;;;;;;5032062;28;20080;-81
2022/12/10 09:35:28;;;;;;;91.30;41.38;;;0.00;99.90;;;;;;5030168;28;20024;-81
2022/12/10 09:37:54;;;;;;;83.18;38.28;;;0.00;99.90;;;;;;5035409;28;20545;-81
2022/12/10 09:40:34;;;;;;;97.85;43.42;;;0.00;99.90;;;;;;5030661;28;20049;-81
2022/12/10 09:43:30;;;;;;;84.90;39.35;;;0.10;99.90;;;;;;5039927;28;20481;-81
2022/12/10 09:46:02;;;;;;;85.55;37.78;;;0.00;99.90;;;;;;5035073;28;20021;-81
2022/12/10 09:48:56;;;;;;;93.93;41.10;;;0.00;99.90;;;;;;5040334;28;20038;-81
2022/12/10 09:51:25;;;;;;;88.20;40.35;;;0.00;99.90;;;;;;5035671;28;20013;-81
2022/12/10 09:53:59;;;;;;;93.47;39.90;;;0.00;99.90;;;;;;5045280;28;20035;-81
2022/12/10 09:56:39;;;;;;;88.72;38.83;;;0.00;99.90;;;;;;5036044;28;20030;-81
2022/12/10 09:59:24;;;;;;;90.97;40.33;;;0.00;99.90;;;;;;5039970;28;20041;-81
2022/12/10 10:02:02;;;;;;;90.05;39.05;;;0.00;99.90;;;;;;5045224;28;20530;-81
2022/12/10 10:04:28;;;;;;;97.18;44.33;;;0.00;99.90;;;;;;5039468;28;20029;-82
2022/12/10 10:06:56;;;;;;;96.90;44.22;;;0.00;99.90;;;;;;5041852;28;20049;-81
2022/12/10 10:09:22;;;;;;;94.60;41.28;;;0.00;99.90;;;;;;5042504;28;20473;-81
2022/12/10 10:11:48;;;;;;;85.15;40.38;;;-0.10;99.90;;;;;;5045658;28;20040;-81
2022/12/10 10:14:27;;;;;;;86.97;38.92;;;0.00;99.90;;;;;;5043698;28;20021;-81
2022/12/10 10:17:03;;;;;;;93.55;38.75;;;0.00;99.90;;;;;;5043876;28;20029;-81
2022/12/10 10:19:34;;;;;;;83.35;38.90;;;0.00;99.90;;;;;;5038809;28;20052;-81
2022/12/10 10:22:00;;;;;;;104.57;41.83;;;-0.10;99.90;;;;;;5045546;28;20021;-81
2022/12/10 10:24:35;;;;;;;100.10;41.72;;;-0.10;99.90;;;;;;5041676;28;20106;-81
2022/12/10 10:27:15;;;;;;;114.95;49.05;;;-0.10;99.90;;;;;;5036080;28;20442;-81
2022/12/10 10:29:45;;;;;;;121.43;48.17;;;-0.10;99.90;;;;;;5044329;28;20344;-80
2022/12/10 10:32:16;;;;;;;110.95;47.20;;;0.00;99.90;;;;;;5037060;28;20029;-81
2022/12/10 10:34:42;;;;;;;112.55;47.63;;;-0.10;99.90;;;;;;5037880;28;20183;-81
2022/12/10 10:37:26;;;;;;;127.22;47.90;;;0.00;99.90;;;;;;5035947;28;20022;-81
2022/12/10 10:39:52;;;;;;;124.90;47.30;;;-0.10;99.90;;;;;;5038219;28;20147;-81
2022/12/10 10:42:32;;;;;;;116.20;44.53;;;0.00;99.90;;;;;;5036593;28;20478;-81
2022/12/10 10:44:58;;;;;;;125.20;46.55;;;0.00;99.90;;;;;;5042626;28;20497;-82
2022/12/10 10:47:33;;;;;;;133.15;50.17;;;0.00;99.90;;;;;;5036756;28;20025;-82
2022/12/10 10:49:59;;;;;;;141.60;51.95;;;0.00;99.90;;;;;;5040473;28;20026;-80
2022/12/10 10:52:29;;;;;;;130.90;47.42;;;0.00;99.90;;;;;;5043423;28;20063;-81
2022/12/10 10:54:55;;;;;;;141.15;52.83;;;0.00;99.90;;;;;;5041634;28;20021;-80
2022/12/10 10:57:36;;;;;;;136.45;49.47;;;0.00;99.90;;;;;;5032249;28;20085;-81
2022/12/10 11:00:17;;;;;;;139.50;50.75;;;0.00;99.90;;;;;;5040006;28;20072;-81
2022/12/10 11:02:43;;;;;;;134.60;47.22;;;0.00;99.90;;;;;;5035578;28;20365;-81
2022/12/10 11:05:19;;;;;;;122.05;47.33;;;0.00;99.90;;;;;;5029820;28;20025;-81
2022/12/10 11:07:48;;;;;;;133.05;49.05;;;0.10;99.90;;;;;;5036572;28;20024;-80
2022/12/10 11:10:23;;;;;;;123.53;47.60;;;0.00;99.90;;;;;;5034088;28;20044;-81
2022/12/10 11:13:04;;;;;;;122.50;48.33;;;0.10;99.90;;;;;;5041208;28;20493;-81
2022/12/10 11:15:29;;;;;;;115.22;46.85;;;0.00;99.90;;;;;;5039944;28;20310;-81
2022/12/10 11:17:56;;;;;;;102.75;42.78;;;0.00;99.90;;;;;;5033930;28;20017;-81
2022/12/10 11:20:34;;;;;;;109.53;42.58;;;0.00;99.90;;;;;;5034937;28;20025;-82
2022/12/10 11:23:07;;;;;;;112.97;43.28;;;0.00;99.90;;;;;;5046487;28;20028;-81
2022/12/10 11:25:40;;;;;;;107.82;42.25;;;0.00;99.90;;;;;;5037363;28;20041;-81
2022/12/10 11:28:34;;;;;;;107.15;44.42;;;0.00;99.90;;;;;;5040047;28;20051;-81
2022/12/10 11:31:26;;;;;;;110.75;45.78;;;0.00;99.90;;;;;;5042899;28;20060;-81
2022/12/10 11:34:04;;;;;;;95.75;42.63;;;0.00;99.90;;;;;;5033856;28;20064;-82
2022/12/10 11:36:46;;;;;;;112.22;43.67;;;0.00;99.90;;;;;;5038727;28;20017;-81
2022/12/10 11:39:28;;;;;;;94.35;42.47;;;-0.10;99.90;;;;;;5053960;28;20488;-81
2022/12/10 11:42:10;;;;;;;95.82;41.83;;;-0.10;99.90;;;;;;5044421;28;20021;-81
2022/12/10 11:44:51;;;;;;;97.40;41.83;;;0.00;99.90;;;;;;5037268;28;20040;-81
2022/12/10 11:47:37;;;;;;;112.72;47.40;;;0.00;99.90;;;;;;5041571;28;20026;-81
2022/12/10 11:50:28;;;;;;;116.50;50.08;;;0.00;99.90;;;;;;5041509;28;20033;-82
2022/12/10 11:53:11;;;;;;;98.13;42.58;;;-0.10;99.90;;;;;;5034836;28;20060;-81
2022/12/10 11:55:56;;;;;;;106.93;45.92;;;0.00;99.90;;;;;;5034703;28;20016;-82
2022/12/10 11:58:50;;;;;;;106.73;44.60;;;-0.10;99.90;;;;;;5031328;28;20489;-82
2022/12/10 12:01:42;;;;;;;100.22;45.85;;;-0.10;99.90;;;;;;5032762;28;20807;-81
2022/12/10 12:04:24;;;;;;;99.28;40.55;;;0.00;99.90;;;;;;5039270;28;20029;-81
2022/12/10 12:07:11;;;;;;;101.25;42.20;;;0.00;99.90;;;;;;5041701;28;20017;-82
2022/12/10 12:09:55;;;;;;;95.22;42.42;;;0.00;99.90;;;;;;5040860;28;20021;-82
2022/12/10 12:12:30;;;;;;;87.88;40.13;;;0.00;99.90;;;;;;5040195;28;20374;-82
2022/12/10 12:15:03;;;;;;;91.32;41.47;;;-0.10;99.90;;;;;;5035935;28;20016;-82
2022/12/10 12:17:41;;;;;;;90.80;39.85;;;-0.10;99.90;;;;;;5040297;28;20061;-81
2022/12/10 12:20:49;;;;;;;82.57;37.05;;;-0.10;99.90;;;;;;5036915;28;20059;-81
2022/12/10 12:23:30;;;;;;;88.25;39.25;;;-0.10;99.90;;;;;;5018383;28;20049;-82
2022/12/10 12:26:03;;;;;;;93.55;40.63;;;-0.10;99.90;;;;;;5039465;28;20034;-80
2022/12/10 12:28:36;;;;;;;87.18;39.65;;;-0.10;99.90;;;;;;5038747;28;20153;-81
2022/12/10 12:31:08;;;;;;;92.88;40.10;;;-0.10;99.90;;;;;;5037667;28;20067;-81
2022/12/10 12:33:40;;;;;;;94.25;42.83;;;-0.10;99.90;;;;;;5042475;28;20053;-81
2022/12/10 12:36:16;;;;;;;89.97;39.63;;;-0.10;99.90;;;;;;5038826;28;20029;-80
2022/12/10 12:39:12;;;;;;;87.90;40.63;;;-0.10;99.90;;;;;;5038180;28;20083;-81
2022/12/10 12:41:56;;;;;;;84.70;38.70;;;-0.10;99.90;;;;;;5046349;28;20125;-81
2022/12/10 12:44:29;;;;;;;83.90;38.20;;;-0.10;99.90;;;;;;5042890;28;20075;-81
2022/12/10 12:46:56;;;;;;;84.80;37.78;;;-0.10;99.90;;;;;;5038536;28;20030;-81
2022/12/10 12:49:33;;;;;;;95.00;41.47;;;-0.10;99.90;;;;;;5034461;28;20033;-82
2022/12/10 12:52:29;;;;;;;92.95;43.33;;;-0.10;99.90;;;;;;5041482;28;20057;-81
2022/12/10 12:54:58;;;;;;;92.25;40.97;;;-0.10;99.90;;;;;;5034153;28;20172;-81
2022/12/10 12:57:45;;;;;;;95.03;39.88;;;-0.10;99.90;;;;;;5036113;28;20481;-81
2022/12/10 13:00:17;;;;;;;98.75;41.85;;;-0.10;99.90;;;;;;5034254;28;20056;-81
2022/12/10 13:03:08;;;;;;;102.25;42.22;;;-0.20;99.90;;;;;;5033743;28;20029;-81
2022/12/10 13:05:38;;;;;;;98.15;43.13;;;-0.20;99.90;;;;;;5036821;28;20124;-80